createdAt,value
2019-03-21T00:00:28.461Z,101714.30
2019-03-21T00:02:58.207Z,101714.59
2019-03-21T00:05:30.287Z,101725.16
2019-03-21T00:07:59.471Z,101721.58
2019-03-21T00:11:26.596Z,101716.55
2019-03-21T00:14:06.914Z,101718.16
2019-03-21T00:16:32.034Z,101721.21
2019-03-21T00:19:01.626Z,101720.22
2019-03-21T00:21:30.490Z,101721.42
2019-03-21T00:23:59.462Z,101719.56
2019-03-21T00:26:28.431Z,101719.94
2019-03-21T00:28:57.348Z,101718.11
2019-03-21T00:31:26.335Z,101715.58
2019-03-21T00:33:55.223Z,101717.66
2019-03-21T00:36:24.242Z,101713.29
2019-03-21T00:38:53.110Z,101705.39
2019-03-21T00:41:21.953Z,101708.63
2019-03-21T00:43:51.145Z,101700.67
2019-03-21T00:46:20.032Z,101701.77
2019-03-21T00:48:50.349Z,101699.27
2019-03-21T00:51:19.207Z,101705.09
2019-03-21T00:53:48.117Z,101704.46
2019-03-21T00:56:16.959Z,101700.73
2019-03-21T00:58:46.970Z,101698.23
2019-03-21T01:01:16.840Z,101701.39
2019-03-21T01:03:45.956Z,101697.13
2019-03-21T01:06:14.839Z,101695.46
2019-03-21T01:08:44.188Z,101700.09
2019-03-21T01:11:13.078Z,101696.45
2019-03-21T01:13:41.954Z,101694.89
2019-03-21T01:16:10.881Z,101695.98
2019-03-21T01:18:39.914Z,101689.71
2019-03-21T01:21:08.871Z,101692.60
2019-03-21T01:23:37.756Z,101695.36
2019-03-21T01:26:06.659Z,101693.05
2019-03-21T01:28:35.918Z,101686.36
2019-03-21T01:31:04.825Z,101689.58
2019-03-21T01:33:33.727Z,101688.10
2019-03-21T01:36:02.652Z,101682.17
2019-03-21T01:38:31.695Z,101673.62
2019-03-21T01:41:02.055Z,101679.73
2019-03-21T01:43:30.967Z,101681.97
2019-03-21T01:46:00.976Z,101674.37
2019-03-21T01:48:29.866Z,101671.78
2019-03-21T01:50:58.757Z,101666.28
2019-03-21T01:53:27.614Z,101666.28
2019-03-21T01:55:56.834Z,101663.99
2019-03-21T01:58:25.746Z,101657.88
2019-03-21T02:00:54.634Z,101656.20
2019-03-21T02:03:23.510Z,101658.86
2019-03-21T02:05:52.372Z,101656.00
2019-03-21T02:08:21.233Z,101660.91
2019-03-21T02:10:50.483Z,101641.44
2019-03-21T02:13:19.355Z,101653.48
2019-03-21T02:15:50.753Z,101648.66
2019-03-21T02:18:20.127Z,101648.94
2019-03-21T02:20:49.005Z,101646.70
2019-03-21T02:23:17.884Z,101648.47
2019-03-21T02:25:47.131Z,101645.41
2019-03-21T02:28:15.958Z,101642.91
2019-03-21T02:30:44.830Z,101642.17
2019-03-21T02:33:18.485Z,101644.92
2019-03-21T02:35:47.589Z,101638.62
2019-03-21T02:38:16.527Z,101640.02
2019-03-21T02:40:45.450Z,101642.62
2019-03-21T02:43:14.193Z,101638.36
2019-03-21T02:45:43.157Z,101639.66
2019-03-21T02:48:12.048Z,101631.10
2019-03-21T02:50:40.969Z,101638.98
2019-03-21T02:53:09.804Z,101633.80
2019-03-21T02:55:38.837Z,101625.64
2019-03-21T02:58:07.701Z,101635.80
2019-03-21T03:00:36.670Z,101632.20
2019-03-21T03:03:05.854Z,101632.91
2019-03-21T03:05:34.814Z,101631.25
2019-03-21T03:08:04.173Z,101634.36
2019-03-21T03:10:45.828Z,101627.52
2019-03-21T03:13:14.665Z,101637.42
2019-03-21T03:15:43.630Z,101635.75
2019-03-21T03:18:12.558Z,101636.59
2019-03-21T03:20:41.473Z,101639.64
2019-03-21T03:23:10.489Z,101634.70
2019-03-21T03:25:40.451Z,101629.24
2019-03-21T03:28:18.494Z,101634.52
2019-03-21T03:30:47.695Z,101636.75
2019-03-21T03:33:17.025Z,101643.94
2019-03-21T03:35:47.547Z,101635.48
2019-03-21T03:38:16.403Z,101634.46
2019-03-21T03:40:48.808Z,101639.34
2019-03-21T03:43:17.642Z,101636.84
2019-03-21T03:45:46.819Z,101635.26
2019-03-21T03:48:15.703Z,101642.27
2019-03-21T03:50:45.685Z,101645.88
2019-03-21T03:53:14.534Z,101648.55
2019-03-21T03:55:43.434Z,101645.59
2019-03-21T03:58:14.157Z,101645.83
2019-03-21T04:00:43.007Z,101648.66
2019-03-21T04:03:11.934Z,101647.17
2019-03-21T04:05:41.094Z,101651.58
2019-03-21T04:08:09.953Z,101646.03
2019-03-21T04:10:41.695Z,101640.94
2019-03-21T04:13:10.871Z,101653.52
2019-03-21T04:15:51.628Z,101650.24
2019-03-21T04:18:11.403Z,101649.88
2019-03-21T04:20:42.229Z,101646.53
2019-03-21T04:23:11.368Z,101652.64
2019-03-21T04:25:53.409Z,101652.73
2019-03-21T04:28:22.287Z,101658.74
2019-03-21T04:30:51.584Z,101653.25
2019-03-21T04:33:22.673Z,101658.98
2019-03-21T04:35:51.978Z,101651.44
2019-03-21T04:38:21.076Z,101655.88
2019-03-21T04:40:50.368Z,101664.20
2019-03-21T04:43:19.246Z,101654.81
2019-03-21T04:45:48.120Z,101653.98
2019-03-21T04:48:16.963Z,101664.05
2019-03-21T04:50:45.973Z,101659.80
2019-03-21T04:53:14.807Z,101665.49
2019-03-21T04:55:43.654Z,101660.66
2019-03-21T04:58:12.508Z,101657.84
2019-03-21T05:00:41.573Z,101655.20
2019-03-21T05:03:10.661Z,101652.55
2019-03-21T05:05:39.527Z,101661.28
2019-03-21T05:08:08.500Z,101658.41
2019-03-21T05:10:37.347Z,101662.00
2019-03-21T05:13:06.236Z,101660.84
2019-03-21T05:15:38.166Z,101663.52
2019-03-21T05:18:11.789Z,101656.44
2019-03-21T05:20:40.624Z,101669.92
2019-03-21T05:23:09.758Z,101664.59
2019-03-21T05:25:38.618Z,101662.47
2019-03-21T05:28:07.578Z,101670.86
2019-03-21T05:30:42.027Z,101671.74
2019-03-21T05:33:10.927Z,101668.03
2019-03-21T05:35:39.776Z,101671.91
2019-03-21T05:38:08.973Z,101668.11
2019-03-21T05:40:37.866Z,101671.99
2019-03-21T05:43:14.346Z,101672.37
2019-03-21T05:45:43.198Z,101668.16
2019-03-21T05:48:12.048Z,101668.70
2019-03-21T05:50:42.026Z,101668.88
2019-03-21T05:53:11.709Z,101675.85
2019-03-21T05:55:40.570Z,101682.27
2019-03-21T05:58:09.818Z,101678.39
2019-03-21T06:00:41.173Z,101686.66
2019-03-21T06:03:15.353Z,101692.75
2019-03-21T06:05:49.211Z,101688.95
2019-03-21T06:08:23.633Z,101692.45
2019-03-21T06:10:53.128Z,101695.50
2019-03-21T06:13:22.981Z,101692.45
2019-03-21T06:15:51.833Z,101693.29
2019-03-21T06:18:49.202Z,101708.73
2019-03-21T06:21:42.505Z,101700.97
2019-03-21T06:24:28.474Z,101704.01
2019-03-21T06:27:27.257Z,101711.23
2019-03-21T06:29:56.379Z,101712.02
2019-03-21T06:32:27.282Z,101705.30
2019-03-21T06:34:56.572Z,101715.81
2019-03-21T06:37:28.494Z,101714.76
2019-03-21T06:39:56.610Z,101713.16
2019-03-21T06:42:25.558Z,101714.16
2019-03-21T06:44:54.477Z,101715.11
2019-03-21T06:47:23.375Z,101708.80
2019-03-21T06:49:52.561Z,101714.87
2019-03-21T06:52:21.485Z,101715.72
2019-03-21T06:54:50.344Z,101716.53
2019-03-21T06:57:19.607Z,101715.67
2019-03-21T06:59:49.142Z,101714.38
2019-03-21T07:02:18.022Z,101714.34
2019-03-21T07:04:47.046Z,101717.73
2019-03-21T07:07:16.314Z,101714.22
2019-03-21T07:09:45.158Z,101709.92
2019-03-21T07:12:14.079Z,101704.59
2019-03-21T07:14:42.955Z,101708.01
2019-03-21T07:17:11.909Z,101704.80
2019-03-21T07:19:40.742Z,101712.94
2019-03-21T07:22:12.156Z,101705.74
2019-03-21T07:24:41.092Z,101703.86
2019-03-21T07:29:33.751Z,101695.54
2019-03-21T07:32:02.803Z,101693.69
2019-03-21T07:34:32.306Z,101694.11
2019-03-21T07:37:01.171Z,101687.47
2019-03-21T07:39:30.776Z,101688.98
2019-03-21T07:42:01.120Z,101694.52
2019-03-21T07:44:30.837Z,101691.72
2019-03-21T07:47:11.808Z,101686.36
2019-03-21T07:49:32.742Z,101681.73
2019-03-21T07:52:01.724Z,101680.40
2019-03-21T07:54:30.614Z,101679.59
2019-03-21T07:57:01.129Z,101683.11
2019-03-21T07:59:30.503Z,101684.92
2019-03-21T08:01:59.995Z,101681.91
2019-03-21T08:04:30.575Z,101676.12
2019-03-21T08:07:00.189Z,101669.36
2019-03-21T08:09:29.537Z,101668.17
2019-03-21T08:11:59.215Z,101671.23
2019-03-21T08:14:28.041Z,101664.41
2019-03-21T08:16:56.926Z,101658.50
2019-03-21T08:19:26.229Z,101659.14
2019-03-21T08:21:55.120Z,101653.97
2019-03-21T08:24:23.988Z,101652.72
2019-03-21T08:26:52.837Z,101651.71
2019-03-21T08:29:21.758Z,101659.47
2019-03-21T08:31:50.898Z,101648.86
2019-03-21T08:34:19.907Z,101652.58
2019-03-21T08:36:48.780Z,101640.84
2019-03-21T08:39:17.710Z,101647.16
2019-03-21T08:41:46.588Z,101645.30
2019-03-21T08:44:15.831Z,101645.02
2019-03-21T08:46:44.709Z,101635.02
2019-03-21T08:49:13.606Z,101640.89
2019-03-21T08:51:42.819Z,101636.27
2019-03-21T08:54:12.096Z,101638.90
2019-03-21T08:56:40.965Z,101636.76
2019-03-21T08:59:09.837Z,101640.94
2019-03-21T09:01:38.770Z,101641.50
2019-03-21T09:04:07.632Z,101635.94
2019-03-21T09:06:36.600Z,101630.92
2019-03-21T09:09:08.381Z,101629.97
2019-03-21T09:11:37.545Z,101621.03
2019-03-21T09:14:06.583Z,101627.41
2019-03-21T09:16:35.477Z,101617.66
2019-03-21T09:19:04.368Z,101616.44
2019-03-21T09:21:33.290Z,101612.41
2019-03-21T09:24:02.164Z,101610.64
2019-03-21T09:26:32.177Z,101605.69
2019-03-21T09:29:01.072Z,101602.56
2019-03-21T09:31:29.931Z,101601.62
2019-03-21T09:33:58.815Z,101596.94
2019-03-21T09:36:27.697Z,101597.80
2019-03-21T09:38:56.567Z,101605.25
2019-03-21T09:41:25.528Z,101602.97
2019-03-21T09:43:54.519Z,101594.34
2019-03-21T09:46:23.766Z,101590.02
2019-03-21T09:48:52.726Z,101590.09
2019-03-21T09:51:30.516Z,101578.77
2019-03-21T09:53:52.785Z,101574.39
2019-03-21T09:56:23.960Z,101581.89
2019-03-21T09:58:52.631Z,101582.48
2019-03-21T10:01:21.564Z,101579.60
2019-03-21T10:03:50.447Z,101573.51
2019-03-21T10:06:19.341Z,101570.00
2019-03-21T10:08:48.562Z,101565.27
2019-03-21T10:11:17.522Z,101566.19
2019-03-21T10:13:46.426Z,101563.92
2019-03-21T10:16:15.365Z,101556.84
2019-03-21T10:18:44.297Z,101559.43
2019-03-21T10:21:13.194Z,101555.63
2019-03-21T10:23:42.051Z,101553.64
2019-03-21T10:26:10.917Z,101554.43
2019-03-21T10:28:40.181Z,101546.55
2019-03-21T10:31:09.071Z,101544.38
2019-03-21T10:33:38.589Z,101546.98
2019-03-21T10:36:07.310Z,101539.56
2019-03-21T10:38:36.225Z,101534.63
2019-03-21T10:41:05.072Z,101536.63
2019-03-21T10:43:33.927Z,101529.81
2019-03-21T10:46:02.801Z,101531.28
2019-03-21T10:48:31.676Z,101527.20
2019-03-21T10:51:01.630Z,101524.66
2019-03-21T10:53:31.067Z,101516.86
2019-03-21T10:55:59.923Z,101517.73
2019-03-21T10:58:30.653Z,101512.02
2019-03-21T11:00:59.555Z,101514.09
2019-03-21T11:03:28.849Z,101513.25
2019-03-21T11:05:57.748Z,101507.85
2019-03-21T11:08:26.618Z,101507.35
2019-03-21T11:10:55.489Z,101501.94
2019-03-21T11:13:24.504Z,101504.64
2019-03-21T11:15:53.829Z,101497.48
2019-03-21T11:18:22.755Z,101495.64
2019-03-21T11:20:51.625Z,101491.96
2019-03-21T11:23:22.244Z,101486.31
2019-03-21T11:25:52.099Z,101484.55
2019-03-21T11:28:21.194Z,101484.57
2019-03-21T11:30:50.078Z,101479.92
2019-03-21T11:33:18.897Z,101477.05
2019-03-21T11:35:47.854Z,101471.54
2019-03-21T11:38:16.712Z,101470.72
2019-03-21T11:40:48.380Z,101464.45
2019-03-21T11:43:18.784Z,101461.57
2019-03-21T11:45:48.115Z,101459.05
2019-03-21T11:48:17.204Z,101452.67
2019-03-21T11:50:46.356Z,101454.02
2019-03-21T11:53:15.206Z,101452.96
2019-03-21T11:55:44.092Z,101447.20
2019-03-21T11:58:12.943Z,101440.83
2019-03-21T12:00:45.070Z,101438.43
2019-03-21T12:03:12.919Z,101429.53
2019-03-21T12:05:41.770Z,101432.69
2019-03-21T12:08:10.643Z,101426.11
2019-03-21T12:10:39.476Z,101421.98
2019-03-21T12:13:08.339Z,101418.26
2019-03-21T12:15:37.778Z,101418.87
2019-03-21T12:18:06.620Z,101408.86
2019-03-21T12:20:35.531Z,101408.50
2019-03-21T12:23:04.728Z,101402.00
2019-03-21T12:25:33.580Z,101401.41
2019-03-21T12:28:02.548Z,101396.54
2019-03-21T12:30:36.646Z,101385.71
2019-03-21T12:33:05.682Z,101388.45
2019-03-21T12:35:34.848Z,101383.66
2019-03-21T12:38:05.573Z,101376.99
2019-03-21T12:40:34.799Z,101375.46
2019-03-21T12:43:04.667Z,101370.47
2019-03-21T12:45:33.764Z,101372.78
2019-03-21T12:48:03.229Z,101364.51
2019-03-21T12:50:32.132Z,101368.63
2019-03-21T12:53:01.114Z,101357.28
2019-03-21T12:55:29.961Z,101359.84
2019-03-21T12:57:58.827Z,101353.39
2019-03-21T13:00:41.673Z,101346.44
2019-03-21T13:03:10.768Z,101358.08
2019-03-21T13:05:39.839Z,101348.33
2019-03-21T13:08:08.755Z,101348.58
2019-03-21T13:10:37.623Z,101345.08
2019-03-21T13:13:07.126Z,101339.70
2019-03-21T13:15:36.031Z,101337.22
2019-03-21T13:18:06.520Z,101335.58
2019-03-21T13:20:35.618Z,101334.52
2019-03-21T13:23:05.426Z,101325.30
2019-03-21T13:25:34.913Z,101321.75
2019-03-21T13:28:04.488Z,101320.34
2019-03-21T13:30:33.498Z,101314.84
2019-03-21T13:33:04.221Z,101315.84
2019-03-21T13:35:35.227Z,101315.84
2019-03-21T13:38:05.054Z,101311.47
2019-03-21T13:40:34.026Z,101309.55
2019-03-21T13:43:03.646Z,101311.13
2019-03-21T13:45:32.664Z,101304.13
2019-03-21T13:48:01.538Z,101305.45
2019-03-21T13:50:30.448Z,101301.61
2019-03-21T13:53:04.654Z,101286.44
2019-03-21T13:55:31.527Z,101297.66
2019-03-21T13:58:00.716Z,101290.31
2019-03-21T14:00:29.713Z,101288.05
2019-03-21T14:02:58.621Z,101281.30
2019-03-21T14:05:27.462Z,101285.64
2019-03-21T14:07:56.187Z,101281.95
2019-03-21T14:10:25.033Z,101280.09
2019-03-21T14:12:54.004Z,101281.50
2019-03-21T14:15:22.924Z,101282.33
2019-03-21T14:17:52.303Z,101278.88
2019-03-21T14:20:21.158Z,101275.05
2019-03-21T14:22:50.015Z,101269.05
2019-03-21T14:25:18.890Z,101265.30
2019-03-21T14:27:47.742Z,101263.47
2019-03-21T14:30:16.968Z,101263.92
2019-03-21T14:32:45.834Z,101262.16
2019-03-21T14:35:15.954Z,101262.73
2019-03-21T14:37:44.813Z,101262.00
2019-03-21T14:40:13.912Z,101264.19
2019-03-21T14:42:43.167Z,101262.52
2019-03-21T14:45:12.842Z,101252.98
2019-03-21T14:47:41.680Z,101255.38
2019-03-21T14:50:11.978Z,101247.05
2019-03-21T14:52:40.819Z,101254.77
2019-03-21T14:55:10.296Z,101247.39
2019-03-21T14:57:39.837Z,101242.42
2019-03-21T15:00:12.306Z,101246.56
2019-03-21T15:02:41.139Z,101244.50
2019-03-21T15:05:10.206Z,101244.76
2019-03-21T15:07:39.587Z,101245.22
2019-03-21T15:10:09.326Z,101242.20
2019-03-21T15:12:38.268Z,101240.95
2019-03-21T15:15:08.221Z,101233.92
2019-03-21T15:17:37.278Z,101238.50
2019-03-21T15:20:09.160Z,101239.03
2019-03-21T15:22:38.124Z,101245.72
2019-03-21T15:25:09.246Z,101234.49
2019-03-21T15:27:38.724Z,101236.55
2019-03-21T15:30:11.173Z,101237.78
2019-03-21T15:32:41.802Z,101239.47
2019-03-21T15:35:11.534Z,101237.44
2019-03-21T15:37:40.908Z,101237.37
2019-03-21T15:40:11.063Z,101239.72
2019-03-21T15:42:40.154Z,101229.94
2019-03-21T15:45:22.037Z,101237.45
2019-03-21T15:47:42.541Z,101240.40
2019-03-21T15:50:26.162Z,101239.03
2019-03-21T15:52:55.271Z,101241.13
2019-03-21T15:55:24.087Z,101232.35
2019-03-21T15:57:53.410Z,101235.42
2019-03-21T16:00:35.907Z,101231.53
2019-03-21T16:03:06.242Z,101241.27
2019-03-21T16:05:35.588Z,101242.51
2019-03-21T16:08:05.167Z,101239.94
2019-03-21T16:10:34.212Z,101242.20
2019-03-21T16:13:03.838Z,101246.92
2019-03-21T16:15:32.981Z,101246.27
2019-03-21T16:18:03.169Z,101247.50
2019-03-21T16:20:33.173Z,101244.19
2019-03-21T16:23:02.150Z,101243.02
2019-03-21T16:25:31.141Z,101247.70
2019-03-21T16:28:00.288Z,101259.05
2019-03-21T16:30:30.198Z,101256.57
2019-03-21T16:32:59.040Z,101255.91
2019-03-21T16:35:28.208Z,101262.22
2019-03-21T16:37:57.060Z,101257.08
2019-03-21T16:40:25.981Z,101267.16
2019-03-21T16:42:56.287Z,101263.96
2019-03-21T16:45:25.218Z,101262.73
2019-03-21T16:47:55.311Z,101261.16
2019-03-21T16:50:24.227Z,101261.88
2019-03-21T16:52:53.133Z,101262.11
2019-03-21T16:55:21.985Z,101259.21
2019-03-21T16:57:51.079Z,101265.61
2019-03-21T17:00:19.968Z,101269.35
2019-03-21T17:02:48.785Z,101264.64
2019-03-21T17:05:17.827Z,101266.74
2019-03-21T17:07:46.816Z,101267.20
2019-03-21T17:10:16.493Z,101270.63
2019-03-21T17:12:45.391Z,101278.74
2019-03-21T17:15:14.816Z,101272.25
2019-03-21T17:17:44.021Z,101273.58
2019-03-21T17:20:14.385Z,101277.37
2019-03-21T17:22:43.376Z,101277.14
2019-03-21T17:25:12.587Z,101281.76
2019-03-21T17:27:42.385Z,101280.56
2019-03-21T17:30:11.560Z,101284.16
2019-03-21T17:32:40.616Z,101288.57
2019-03-21T17:35:10.123Z,101290.80
2019-03-21T17:37:39.989Z,101287.59
2019-03-21T17:40:09.555Z,101288.84
2019-03-21T17:42:38.585Z,101293.72
2019-03-21T17:45:09.843Z,101295.47
2019-03-21T17:47:40.840Z,101298.23
2019-03-21T17:50:11.013Z,101306.47
2019-03-21T17:52:40.026Z,101303.54
2019-03-21T17:55:10.521Z,101309.62
2019-03-21T17:57:40.325Z,101311.89
2019-03-21T18:00:12.965Z,101313.48
2019-03-21T18:02:42.166Z,101316.06
2019-03-21T18:05:12.160Z,101324.77
2019-03-21T18:07:42.123Z,101324.50
2019-03-21T18:10:29.479Z,101324.75
2019-03-21T18:12:58.824Z,101330.44
2019-03-21T18:15:28.375Z,101333.30
2019-03-21T18:17:57.329Z,101336.14
2019-03-21T18:20:26.209Z,101339.63
2019-03-21T18:22:55.193Z,101346.80
2019-03-21T18:25:24.405Z,101345.03
2019-03-21T18:27:53.479Z,101342.12
2019-03-21T18:30:22.553Z,101346.95
2019-03-21T18:32:51.798Z,101352.75
2019-03-21T18:35:22.214Z,101348.51
2019-03-21T18:37:51.304Z,101352.51
2019-03-21T18:40:20.286Z,101361.12
2019-03-21T18:42:49.383Z,101365.11
2019-03-21T18:45:18.485Z,101362.67
2019-03-21T18:47:47.622Z,101364.45
2019-03-21T18:50:17.802Z,101363.82
2019-03-21T18:52:46.748Z,101367.80
2019-03-21T18:55:15.857Z,101371.09
2019-03-21T18:57:44.906Z,101373.59
2019-03-21T19:00:14.347Z,101368.45
2019-03-21T19:02:43.180Z,101373.74
2019-03-21T19:05:12.421Z,101376.52
2019-03-21T19:07:41.464Z,101373.55
2019-03-21T19:10:11.598Z,101368.94
2019-03-21T19:12:41.623Z,101370.08
2019-03-21T19:15:12.043Z,101373.98
2019-03-21T19:17:41.809Z,101373.61
2019-03-21T19:20:11.072Z,101371.12
2019-03-21T19:22:39.914Z,101383.43
2019-03-21T19:25:18.639Z,101377.31
2019-03-21T19:27:41.005Z,101379.92
2019-03-21T19:30:10.644Z,101379.39
2019-03-21T19:32:39.474Z,101385.45
2019-03-21T19:35:09.627Z,101385.05
2019-03-21T19:37:38.840Z,101385.43
2019-03-21T19:40:09.100Z,101389.62
2019-03-21T19:42:37.955Z,101392.65
2019-03-21T19:45:08.907Z,101387.58
2019-03-21T19:47:38.132Z,101386.19
2019-03-21T19:50:08.613Z,101380.66
2019-03-21T19:52:37.448Z,101384.05
2019-03-21T19:55:06.751Z,101390.89
2019-03-21T19:57:35.617Z,101399.70
2019-03-21T20:00:07.637Z,101397.98
2019-03-21T20:02:38.245Z,101394.96
2019-03-21T20:05:09.093Z,101399.65
2019-03-21T20:07:38.114Z,101399.08
2019-03-21T20:10:08.776Z,101409.02
2019-03-21T20:12:37.608Z,101402.48
2019-03-21T20:15:08.479Z,101399.58
2019-03-21T20:17:37.846Z,101396.48
2019-03-21T20:20:07.621Z,101396.99
2019-03-21T20:22:36.969Z,101397.50
2019-03-21T20:25:06.310Z,101395.74
2019-03-21T20:27:35.513Z,101395.97
2019-03-21T20:30:07.036Z,101403.11
2019-03-21T20:32:37.146Z,101408.09
2019-03-21T20:35:07.459Z,101411.09
2019-03-21T20:37:37.336Z,101408.46
2019-03-21T20:40:07.254Z,101410.48
2019-03-21T20:42:36.120Z,101418.91
2019-03-21T20:45:08.903Z,101407.12
2019-03-21T20:47:45.789Z,101407.81
2019-03-21T20:50:15.036Z,101404.48
2019-03-21T20:52:43.986Z,101398.97
2019-03-21T20:55:12.853Z,101403.30
2019-03-21T20:57:42.452Z,101405.87
2019-03-21T21:00:15.564Z,101411.17
2019-03-21T21:02:44.564Z,101403.02
2019-03-21T21:05:13.709Z,101398.86
2019-03-21T21:07:43.877Z,101398.91
2019-03-21T21:10:13.365Z,101401.10
2019-03-21T21:12:42.268Z,101406.39
2019-03-21T21:15:11.641Z,101402.66
2019-03-21T21:17:42.978Z,101399.00
2019-03-21T21:20:12.278Z,101406.77
2019-03-21T21:22:41.363Z,101401.44
2019-03-21T21:25:10.708Z,101406.95
2019-03-21T21:27:48.788Z,101410.31
2019-03-21T21:30:12.686Z,101411.42
2019-03-21T21:32:41.592Z,101413.01
2019-03-21T21:35:10.482Z,101407.67
2019-03-21T21:37:39.334Z,101409.26
2019-03-21T21:40:08.635Z,101408.68
2019-03-21T21:42:37.564Z,101411.92
2019-03-21T21:45:08.818Z,101414.30
2019-03-21T21:47:38.178Z,101411.95
2019-03-21T21:50:09.247Z,101410.89
2019-03-21T21:52:42.212Z,101413.09
2019-03-21T21:55:10.386Z,101413.96
2019-03-21T21:57:39.269Z,101415.44
2019-03-21T22:00:10.693Z,101416.44
2019-03-21T22:02:39.578Z,101417.09
2019-03-21T22:05:09.604Z,101414.98
2019-03-21T22:07:38.529Z,101411.56
2019-03-21T22:10:08.763Z,101417.09
2019-03-21T22:12:37.839Z,101413.09
2019-03-21T22:15:08.476Z,101418.48
2019-03-21T22:17:38.613Z,101412.22
2019-03-21T22:20:08.239Z,101410.45
2019-03-21T22:22:37.144Z,101407.52
2019-03-21T22:25:06.885Z,101410.39
2019-03-21T22:27:35.789Z,101413.20
2019-03-21T22:30:07.877Z,101416.91
2019-03-21T22:32:36.796Z,101412.78
2019-03-21T22:35:06.396Z,101413.35
2019-03-21T22:37:35.387Z,101410.39
2019-03-21T22:40:06.309Z,101409.70
2019-03-21T22:42:35.473Z,101408.97
2019-03-21T22:45:05.867Z,101407.92
2019-03-21T22:47:34.871Z,101406.98
2019-03-21T22:50:06.225Z,101403.10
2019-03-21T22:52:35.134Z,101400.02
2019-03-21T22:55:04.323Z,101401.20
2019-03-21T22:57:33.184Z,101393.28
2019-03-21T23:00:02.180Z,101388.77
2019-03-21T23:02:32.935Z,101390.20
2019-03-21T23:05:01.787Z,101387.95
2019-03-21T23:07:30.629Z,101383.11
2019-03-21T23:09:59.815Z,101387.03
2019-03-21T23:12:29.612Z,101380.28
2019-03-21T23:14:58.597Z,101377.42
2019-03-21T23:17:27.424Z,101376.02
2019-03-21T23:19:56.392Z,101369.59
2019-03-21T23:22:25.586Z,101373.76
2019-03-21T23:24:54.881Z,101371.02
2019-03-21T23:27:23.930Z,101371.97
2019-03-21T23:29:54.027Z,101374.48
2019-03-21T23:32:22.858Z,101374.71
2019-03-21T23:34:51.746Z,101375.31
2019-03-21T23:37:20.570Z,101372.83
2019-03-21T23:39:49.425Z,101377.67
2019-03-21T23:42:18.488Z,101377.57
2019-03-21T23:44:47.474Z,101370.44
2019-03-21T23:47:16.726Z,101367.73
2019-03-21T23:49:46.112Z,101372.34
2019-03-21T23:52:14.933Z,101374.24
2019-03-21T23:54:43.920Z,101364.89
2019-03-21T23:57:12.762Z,101364.16
2019-03-21T23:59:41.618Z,101365.70
